Time;durP1;ratioP1;P1;durP2;ratioP2;P2;SDS_P1;SDS_P2;PMS_P1;PMS_P2;Temp;Humidity;BMP_temperature;BMP_pressure;BME280_temperature;BME280_humidity;BME280_pressure;Samples;Min_cycle;Max_cycle;Signal;HPM_P1;HPM_P2
2020/02/20 00:00:44;;;;;;;7.2;2.8;;;;;;;2.32;78.24902;966.3736;;;;
2020/02/20 00:05:00;;;;;;;5.8;2.6;;;;;;;2.37;78.5625;966.3356;;;;
2020/02/20 00:05:34;;;;;;;9.1;4.1;;;;;;;2.48;78.94336;966.3269;;;;
2020/02/20 00:07:59;;;;;;;5.5;2.2;;;;;;;2.53;77.93555;966.3159;;;;
2020/02/20 00:12:50;;;;;;;5.9;2.2;;;;;;;2.54;79.25879;966.2756;;;;
2020/02/20 00:16:17;;;;;;;5.1;2.1;;;;;;;2.53;78.91797;966.25;;;;
2020/02/20 00:17:40;;;;;;;6.4;2.2;;;;;;;2.44;78.20313;966.22;;;;
2020/02/20 00:20:05;;;;;;;7;2.8;;;;;;;2.47;78.81836;966.2604;;;;
2020/02/20 00:22:30;;;;;;;8.7;3.4;;;;;;;2.49;79.18262;966.2158;;;;
2020/02/20 00:24:55;;;;;;;8.4;3.2;;;;;;;2.5;78.72266;966.2037;;;;
2020/02/20 00:27:20;;;;;;;8;3.7;;;;;;;2.55;78.45996;966.1834;;;;
2020/02/20 00:29:45;;;;;;;6.9;2.7;;;;;;;2.57;78.83594;966.2156;;;;
2020/02/20 00:32:10;;;;;;;9.2;3;;;;;;;2.52;79.2666;966.2112;;;;
2020/02/20 00:34:35;;;;;;;6;2.9;;;;;;;2.47;78.96484;966.2137;;;;
2020/02/20 00:37:00;;;;;;;7;2.1;;;;;;;2.5;79.16309;966.2101;;;;
2020/02/20 00:39:25;;;;;;;7.2;2.6;;;;;;;2.54;79.40527;966.2805;;;;
2020/02/20 00:41:50;;;;;;;8.7;2.6;;;;;;;2.53;79.53906;966.2339;;;;
2020/02/20 00:44:16;;;;;;;6.5;2.3;;;;;;;2.57;78.90527;966.2394;;;;
2020/02/20 00:46:41;;;;;;;8.3;2.3;;;;;;;2.5;79.96484;966.2252;;;;
2020/02/20 00:49:07;;;;;;;7.7;2.6;;;;;;;2.5;79.94141;966.1961;;;;
2020/02/20 00:51:32;;;;;;;7.1;2.4;;;;;;;2.44;80.44824;966.2271;;;;
2020/02/20 00:53:57;;;;;;;6;2.3;;;;;;;2.43;80.41504;966.204;;;;
2020/02/20 00:56:22;;;;;;;8.2;2.5;;;;;;;2.41;80.13867;966.2413;;;;
2020/02/20 00:58:47;;;;;;;7.1;2.6;;;;;;;2.51;80.9707;966.2498;;;;
2020/02/20 01:01:13;;;;;;;6.6;2.3;;;;;;;2.52;80.25098;966.2668;;;;
2020/02/20 01:03:38;;;;;;;6.5;2.3;;;;;;;2.51;80.08008;966.3155;;;;
2020/02/20 01:06:04;;;;;;;5.8;2.1;;;;;;;2.5;80.29297;966.2503;;;;
2020/02/20 01:08:29;;;;;;;7.7;2.3;;;;;;;2.54;79.72363;966.236;;;;
2020/02/20 01:10:55;;;;;;;7.5;2.4;;;;;;;2.56;79.96387;966.2084;;;;
2020/02/20 01:13:20;;;;;;;7.4;2.7;;;;;;;2.54;79.83691;966.17;;;;
2020/02/20 01:15:45;;;;;;;6.9;2.3;;;;;;;2.65;79.66309;966.1969;;;;
2020/02/20 01:18:10;;;;;;;7.3;2.3;;;;;;;2.63;80.8252;966.0941;;;;
2020/02/20 01:20:35;;;;;;;6.8;2.3;;;;;;;2.63;80.2959;966.1288;;;;
2020/02/20 01:23:00;;;;;;;7.8;2.6;;;;;;;2.61;79.96289;966.0355;;;;
2020/02/20 01:25:26;;;;;;;8.7;2.3;;;;;;;2.76;79.85645;966.0019;;;;
2020/02/20 01:27:51;;;;;;;7.9;2.5;;;;;;;2.65;80.44238;965.9974;;;;
2020/02/20 01:30:16;;;;;;;6.3;2.3;;;;;;;2.58;80.55469;965.9066;;;;
2020/02/20 01:32:41;;;;;;;6.2;2.2;;;;;;;2.62;80.81152;965.9011;;;;
2020/02/20 01:35:06;;;;;;;5.7;2;;;;;;;2.74;81.5459;965.8886;;;;
2020/02/20 01:37:32;;;;;;;5.1;2.1;;;;;;;2.63;81.2334;965.8923;;;;
2020/02/20 01:39:57;;;;;;;5.8;2.1;;;;;;;2.67;80.96777;965.8741;;;;
2020/02/20 01:42:22;;;;;;;6;2.1;;;;;;;2.69;81.19824;965.8445;;;;
2020/02/20 01:44:47;;;;;;;7.2;2.2;;;;;;;2.65;80.81738;965.8135;;;;
2020/02/20 01:47:13;;;;;;;6.6;2;;;;;;;2.71;81.25684;965.7854;;;;
2020/02/20 01:49:38;;;;;;;7.9;2.4;;;;;;;2.73;81.44238;965.7491;;;;
2020/02/20 01:52:03;;;;;;;5.2;2;;;;;;;2.74;81.41211;965.707;;;;
2020/02/20 01:54:28;;;;;;;6.8;2.3;;;;;;;2.72;81.93848;965.6152;;;;
2020/02/20 01:56:53;;;;;;;4.6;2.1;;;;;;;2.78;81.52051;965.66;;;;
2020/02/20 01:59:19;;;;;;;7;2.4;;;;;;;2.77;81.34961;965.6315;;;;
2020/02/20 02:09:06;;;;;;;6.2;2.2;;;;;;;2.88;81.21191;965.5542;;;;
2020/02/20 02:11:24;;;;;;;6.6;2.3;;;;;;;2.98;82;965.5931;;;;
2020/02/20 02:13:49;;;;;;;6.1;2.3;;;;;;;2.88;81.12109;965.5478;;;;
2020/02/20 02:16:14;;;;;;;7.3;2.2;;;;;;;2.95;82.07324;965.5269;;;;
2020/02/20 02:18:39;;;;;;;6.2;2.3;;;;;;;2.94;80.90527;965.5198;;;;
2020/02/20 02:21:05;;;;;;;7.1;2.4;;;;;;;3.02;81.50879;965.5062;;;;
2020/02/20 02:23:30;;;;;;;5.8;2.1;;;;;;;2.96;80.9668;965.4842;;;;
2020/02/20 02:25:55;;;;;;;7.1;2.2;;;;;;;3.01;81.34863;965.4343;;;;
2020/02/20 02:28:20;;;;;;;5.5;2.1;;;;;;;2.98;80.90234;965.4416;;;;
2020/02/20 02:30:46;;;;;;;6.8;2.3;;;;;;;3.03;80.80957;965.4508;;;;
2020/02/20 02:33:11;;;;;;;6.8;2;;;;;;;2.94;81.29004;965.4473;;;;
2020/02/20 02:35:36;;;;;;;6.1;2.4;;;;;;;3.03;81.41992;965.4523;;;;
2020/02/20 02:38:01;;;;;;;7.8;2.3;;;;;;;2.97;81.09473;965.3946;;;;
2020/02/20 02:40:27;;;;;;;7;2.4;;;;;;;3.06;81.29102;965.3625;;;;
2020/02/20 02:42:52;;;;;;;8.9;2.3;;;;;;;3.03;81.44434;965.3672;;;;
2020/02/20 02:45:18;;;;;;;7.4;2.3;;;;;;;3.17;81.99023;965.3733;;;;
2020/02/20 02:47:43;;;;;;;6;2;;;;;;;3.23;81.76563;965.2921;;;;
2020/02/20 02:50:09;;;;;;;5.8;2;;;;;;;3.26;81.09277;965.2483;;;;
2020/02/20 02:52:34;;;;;;;7.3;2.3;;;;;;;3.37;81.59863;965.2332;;;;
2020/02/20 02:55:01;;;;;;;6.7;2.2;;;;;;;3.37;81.22656;965.2043;;;;
2020/02/20 02:57:26;;;;;;;6.7;2.1;;;;;;;3.33;82.34961;965.2068;;;;
2020/02/20 02:59:51;;;;;;;4.8;2;;;;;;;3.37;80.63672;965.209;;;;
2020/02/20 03:02:16;;;;;;;5.7;2;;;;;;;3.27;80.41406;965.1674;;;;
2020/02/20 03:04:41;;;;;;;5.1;2.1;;;;;;;3.25;81.16895;965.1951;;;;
2020/02/20 03:07:06;;;;;;;5.7;2;;;;;;;3.26;80.83105;965.1746;;;;
2020/02/20 03:09:32;;;;;;;6.7;2.2;;;;;;;3.27;80.95703;965.2083;;;;
2020/02/20 03:11:57;;;;;;;6.7;2.3;;;;;;;3.26;81.20508;965.1608;;;;
2020/02/20 03:14:34;;;;;;;6;2.3;;;;;;;3.14;81.05664;965.2186;;;;
2020/02/20 03:16:47;;;;;;;6.6;2.5;;;;;;;3.21;82.19141;965.2292;;;;
2020/02/20 03:19:24;;;;;;;6.6;2.2;;;;;;;3.22;81.99902;965.2498;;;;
2020/02/20 03:21:42;;;;;;;6.3;2.4;;;;;;;3.26;81.78125;965.1462;;;;
2020/02/20 03:24:03;;;;;;;6.9;2.4;;;;;;;3.26;81.74902;965.1816;;;;
2020/02/20 03:26:28;;;;;;;6.5;2.2;;;;;;;3.21;81.69434;965.2364;;;;
2020/02/20 03:28:53;;;;;;;6.2;2.3;;;;;;;3.3;81.48438;965.1941;;;;
2020/02/20 03:31:18;;;;;;;6.3;2.3;;;;;;;3.35;82.28516;965.1997;;;;
2020/02/20 03:33:44;;;;;;;5.8;2.3;;;;;;;3.3;81.67676;965.129;;;;
2020/02/20 03:36:09;;;;;;;5.4;2.3;;;;;;;3.17;82.32031;965.1564;;;;
2020/02/20 03:38:34;;;;;;;7;2.5;;;;;;;3.24;82.16309;965.1423;;;;
2020/02/20 03:41:00;;;;;;;5.9;2.2;;;;;;;3.27;82.7793;965.1133;;;;
2020/02/20 03:43:25;;;;;;;6;2.4;;;;;;;3.27;81.99805;965.1358;;;;
2020/02/20 03:45:50;;;;;;;6.5;2.7;;;;;;;3.26;82.17773;965.1301;;;;
2020/02/20 03:48:15;;;;;;;5.7;2.2;;;;;;;3.29;82.62598;965.1156;;;;
2020/02/20 03:50:40;;;;;;;5.6;2.3;;;;;;;3.41;82.32031;965.1129;;;;
2020/02/20 03:53:05;;;;;;;6.4;2.4;;;;;;;3.42;82.55957;965.1001;;;;
2020/02/20 03:55:30;;;;;;;4.8;2.1;;;;;;;3.47;82.67188;965.0831;;;;
2020/02/20 03:57:56;;;;;;;6.3;2.4;;;;;;;3.42;82.61621;965.0347;;;;
2020/02/20 04:02:27;;;;;;;5.8;2.3;;;;;;;3.52;82.38672;964.9706;;;;
2020/02/20 04:04:52;;;;;;;6.4;2.2;;;;;;;3.56;82.48535;964.9257;;;;
2020/02/20 04:07:17;;;;;;;6.7;2.6;;;;;;;3.47;82.08301;964.9854;;;;
2020/02/20 04:09:55;;;;;;;7.8;2.5;;;;;;;3.43;83.19727;965.0145;;;;
2020/02/20 04:12:07;;;;;;;6;2.2;;;;;;;3.54;83.03516;964.9067;;;;
2020/02/20 04:14:32;;;;;;;6.2;2.3;;;;;;;3.63;82.27148;964.9294;;;;
2020/02/20 04:16:58;;;;;;;6.9;2.3;;;;;;;3.35;82.13867;964.9345;;;;
2020/02/20 04:19:23;;;;;;;5.7;2.3;;;;;;;3.54;82.14063;964.8504;;;;
2020/02/20 04:21:48;;;;;;;5.5;2.4;;;;;;;3.4;82.61133;964.8859;;;;
2020/02/20 04:24:13;;;;;;;5.8;2.3;;;;;;;3.29;83.28027;964.9064;;;;
2020/02/20 04:26:38;;;;;;;6.3;2.4;;;;;;;3.43;82.94629;964.9153;;;;
2020/02/20 04:29:03;;;;;;;4.4;2.1;;;;;;;3.45;82.65527;964.9116;;;;
2020/02/20 04:31:28;;;;;;;5.9;2;;;;;;;3.54;82.91113;964.856;;;;
2020/02/20 04:33:53;;;;;;;4.5;1.9;;;;;;;3.63;83.15625;964.8869;;;;
2020/02/20 04:36:18;;;;;;;6.2;2.4;;;;;;;3.7;82.20801;964.913;;;;
2020/02/20 04:38:43;;;;;;;5.8;2.4;;;;;;;3.66;81.42676;964.8544;;;;
2020/02/20 04:41:08;;;;;;;5.1;2.1;;;;;;;3.72;81.35938;964.8704;;;;
2020/02/20 04:43:33;;;;;;;6.5;2.2;;;;;;;3.77;81.99512;964.8599;;;;
2020/02/20 04:45:58;;;;;;;6.2;2.3;;;;;;;3.82;81.50488;964.8115;;;;
2020/02/20 04:48:23;;;;;;;4.2;1.8;;;;;;;3.67;82.38184;964.7865;;;;
2020/02/20 04:50:48;;;;;;;5;2.1;;;;;;;3.65;81.83496;964.7608;;;;
2020/02/20 04:53:14;;;;;;;5.8;2.3;;;;;;;3.56;81.27441;964.7548;;;;
2020/02/20 04:55:39;;;;;;;5;1.9;;;;;;;3.65;80.89453;964.735;;;;
2020/02/20 04:58:04;;;;;;;5.7;2;;;;;;;3.73;81.22754;964.7734;;;;
2020/02/20 05:00:29;;;;;;;6;2.2;;;;;;;3.7;81.56152;964.7381;;;;
2020/02/20 05:02:55;;;;;;;5.1;1.9;;;;;;;3.71;80.30469;964.7541;;;;
2020/02/20 05:05:20;;;;;;;7.8;2.2;;;;;;;3.68;80.87695;964.7809;;;;
2020/02/20 05:07:46;;;;;;;5.3;2.2;;;;;;;3.69;80.76563;964.8013;;;;
2020/02/20 05:10:11;;;;;;;4.9;2.1;;;;;;;3.66;81.06641;964.7628;;;;
2020/02/20 05:13:02;;;;;;;5.9;2.1;;;;;;;3.73;81.36328;964.6825;;;;
2020/02/20 05:15:08;;;;;;;5.7;1.9;;;;;;;3.7;80.63184;964.6468;;;;
2020/02/20 05:17:27;;;;;;;6.1;2;;;;;;;3.7;80.34961;964.6597;;;;
2020/02/20 05:19:51;;;;;;;7.3;2.4;;;;;;;3.74;80.68555;964.6664;;;;
2020/02/20 05:22:17;;;;;;;7.5;2.1;;;;;;;3.87;79.48535;964.6728;;;;
2020/02/20 05:24:42;;;;;;;4;1.8;;;;;;;3.96;79.25488;964.6392;;;;
2020/02/20 05:27:08;;;;;;;4.6;2.1;;;;;;;3.96;79.26563;964.6231;;;;
2020/02/20 05:29:33;;;;;;;5;1.8;;;;;;;4.01;78.85449;964.6669;;;;
2020/02/20 05:31:58;;;;;;;5.5;1.9;;;;;;;3.87;79.3623;964.6482;;;;
2020/02/20 05:34:23;;;;;;;4.7;1.8;;;;;;;3.83;79.05957;964.6637;;;;
2020/02/20 05:36:48;;;;;;;5.1;1.8;;;;;;;3.85;78.70215;964.6373;;;;
2020/02/20 05:39:13;;;;;;;5.5;1.8;;;;;;;4.04;78.09082;964.6281;;;;
2020/02/20 05:41:38;;;;;;;4.3;1.6;;;;;;;4.02;79.38867;964.6172;;;;
2020/02/20 05:44:04;;;;;;;5.4;2;;;;;;;4.03;78.5166;964.6326;;;;
2020/02/20 05:46:29;;;;;;;4.9;2.1;;;;;;;3.89;78.15332;964.6155;;;;
2020/02/20 05:48:54;;;;;;;6.2;1.8;;;;;;;3.95;78.70898;964.6694;;;;
2020/02/20 05:51:19;;;;;;;7.6;2.1;;;;;;;3.96;77.73535;964.6956;;;;
2020/02/20 05:53:44;;;;;;;5.2;2;;;;;;;4.07;77.92383;964.6815;;;;
2020/02/20 05:56:09;;;;;;;5.1;1.7;;;;;;;4.04;77.94141;964.6827;;;;
2020/02/20 05:58:35;;;;;;;5.5;1.8;;;;;;;4.06;77.13965;964.6262;;;;
2020/02/20 06:01:00;;;;;;;6.2;1.8;;;;;;;4.08;77.5752;964.6518;;;;
2020/02/20 06:03:25;;;;;;;7.6;2;;;;;;;4.12;77.75195;964.6375;;;;
2020/02/20 06:05:50;;;;;;;6.5;2;;;;;;;4.13;78.00293;964.6343;;;;
2020/02/20 06:08:15;;;;;;;5.1;1.8;;;;;;;4.18;76.32324;964.5906;;;;
2020/02/20 06:10:41;;;;;;;4.8;1.7;;;;;;;4.17;76.86816;964.5421;;;;
2020/02/20 06:13:06;;;;;;;5.9;1.9;;;;;;;4.29;76.83203;964.5458;;;;
2020/02/20 06:15:31;;;;;;;6;1.7;;;;;;;4.26;76.33594;964.5801;;;;
2020/02/20 06:17:56;;;;;;;5.3;1.7;;;;;;;4.32;76.22266;964.5833;;;;
2020/02/20 06:20:21;;;;;;;5.2;1.7;;;;;;;4.33;75.73828;964.5895;;;;
2020/02/20 06:22:46;;;;;;;5.4;1.9;;;;;;;4.38;75.39648;964.6011;;;;
2020/02/20 06:25:11;;;;;;;5.3;1.8;;;;;;;4.34;75.52441;964.6298;;;;
2020/02/20 06:27:36;;;;;;;5.3;1.5;;;;;;;4.43;75.00879;964.6652;;;;
2020/02/20 06:30:01;;;;;;;5.2;1.7;;;;;;;4.35;75.61816;964.6779;;;;
2020/02/20 06:32:27;;;;;;;4.2;1.6;;;;;;;4.36;74.95996;964.6677;;;;
2020/02/20 06:34:52;;;;;;;5;1.6;;;;;;;4.4;74.6377;964.6408;;;;
2020/02/20 06:37:17;;;;;;;6.2;2;;;;;;;4.36;74.7334;964.5861;;;;
2020/02/20 06:39:43;;;;;;;4.4;1.8;;;;;;;4.42;75.5957;964.5957;;;;
2020/02/20 06:42:08;;;;;;;5.5;1.8;;;;;;;4.49;75.2207;964.5906;;;;
2020/02/20 06:44:34;;;;;;;4.8;1.6;;;;;;;4.47;74.67285;964.562;;;;
2020/02/20 06:46:59;;;;;;;4.4;1.6;;;;;;;4.37;74.75781;964.5602;;;;
2020/02/20 06:51:50;;;;;;;5.6;2;;;;;;;4.45;74.55664;964.5528;;;;
2020/02/20 06:54:15;;;;;;;4.5;1.7;;;;;;;4.43;74.44922;964.6008;;;;
2020/02/20 06:56:40;;;;;;;5;1.4;;;;;;;4.48;74.70996;964.6172;;;;
2020/02/20 06:59:05;;;;;;;3.8;1.6;;;;;;;4.55;74.94824;964.6242;;;;
2020/02/20 07:01:30;;;;;;;4.2;1.7;;;;;;;4.52;73.91113;964.6236;;;;
2020/02/20 07:03:55;;;;;;;3.7;1.6;;;;;;;4.43;73.60059;964.6197;;;;
2020/02/20 07:08:46;;;;;;;5;1.7;;;;;;;4.61;74.42578;964.7209;;;;
2020/02/20 07:11:11;;;;;;;4.5;1.6;;;;;;;4.57;73.92969;964.7316;;;;
2020/02/20 07:13:37;;;;;;;6.7;1.8;;;;;;;4.55;73.46094;964.6985;;;;
2020/02/20 07:16:02;;;;;;;5.3;1.8;;;;;;;4.59;72.91309;964.7859;;;;
2020/02/20 07:18:27;;;;;;;5.1;1.8;;;;;;;4.62;72.57715;964.7938;;;;
2020/02/20 07:20:53;;;;;;;5.3;1.8;;;;;;;4.62;72.63379;964.8406;;;;
2020/02/20 07:23:18;;;;;;;4.8;1.5;;;;;;;4.71;72.92188;964.812;;;;
2020/02/20 07:25:44;;;;;;;4.9;1.7;;;;;;;4.64;72.90918;964.8231;;;;
2020/02/20 07:28:09;;;;;;;4.6;1.9;;;;;;;4.63;72.96484;964.8458;;;;
2020/02/20 07:30:35;;;;;;;7.4;2.1;;;;;;;4.66;72.70898;964.8541;;;;
2020/02/20 07:33:00;;;;;;;5.6;1.8;;;;;;;4.73;72.25488;964.8535;;;;
2020/02/20 07:35:25;;;;;;;4.2;1.5;;;;;;;4.74;72.18945;964.7943;;;;
2020/02/20 07:37:50;;;;;;;4.9;1.5;;;;;;;4.76;72.09082;964.8236;;;;
2020/02/20 07:40:15;;;;;;;5.7;1.7;;;;;;;4.84;72.30859;964.8225;;;;
2020/02/20 07:42:41;;;;;;;5.1;1.9;;;;;;;4.85;71.77637;964.8233;;;;
2020/02/20 07:45:06;;;;;;;5;1.7;;;;;;;4.94;71.17676;964.8283;;;;
2020/02/20 07:47:32;;;;;;;4.1;1.7;;;;;;;5.02;71.69141;964.8055;;;;
2020/02/20 07:49:57;;;;;;;4.9;1.5;;;;;;;4.99;70.69727;964.7911;;;;
2020/02/20 07:52:22;;;;;;;3.9;1.6;;;;;;;5.02;71.09863;964.7908;;;;
2020/02/20 07:54:48;;;;;;;4.1;1.4;;;;;;;5.19;70.01465;964.7911;;;;
2020/02/20 07:57:13;;;;;;;4.7;1.8;;;;;;;5.18;70.55762;964.8309;;;;
2020/02/20 07:59:38;;;;;;;4.1;1.4;;;;;;;5.19;69.37793;964.8073;;;;
2020/02/20 08:02:03;;;;;;;3.7;1.6;;;;;;;5.12;69.67383;964.8469;;;;
2020/02/20 08:04:29;;;;;;;3.9;1.6;;;;;;;5.18;70.83203;964.8505;;;;
2020/02/20 08:06:54;;;;;;;4.8;1.6;;;;;;;5.3;70.45313;964.8326;;;;
2020/02/20 08:09:19;;;;;;;6.7;1.9;;;;;;;5.27;69.5166;964.8814;;;;
2020/02/20 08:11:44;;;;;;;5.1;1.7;;;;;;;5.37;69.05469;964.9257;;;;
2020/02/20 08:14:09;;;;;;;4;1.8;;;;;;;5.37;69.17969;964.8917;;;;
2020/02/20 08:16:35;;;;;;;5.8;1.7;;;;;;;5.44;68.99707;964.9611;;;;
2020/02/20 08:19:00;;;;;;;5.3;1.9;;;;;;;5.37;68.50879;964.8998;;;;
2020/02/20 08:21:25;;;;;;;4.8;1.8;;;;;;;5.37;68.44141;964.8747;;;;
2020/02/20 08:23:50;;;;;;;4.7;2.2;;;;;;;5.49;67.9707;964.8781;;;;
2020/02/20 08:26:15;;;;;;;4.6;1.7;;;;;;;5.33;68.10449;964.9375;;;;
2020/02/20 08:28:40;;;;;;;4.6;1.5;;;;;;;5.4;68.44531;964.8704;;;;
2020/02/20 08:31:06;;;;;;;4;1.7;;;;;;;5.45;67.77051;964.8842;;;;
2020/02/20 08:33:31;;;;;;;5.1;1.8;;;;;;;5.45;68.46484;964.8398;;;;
2020/02/20 08:35:56;;;;;;;4.2;1.9;;;;;;;5.74;68.56836;964.835;;;;
2020/02/20 08:38:21;;;;;;;5.1;1.9;;;;;;;5.94;67.01855;964.7997;;;;
2020/02/20 08:40:46;;;;;;;3.5;1.6;;;;;;;5.96;66.69141;964.8362;;;;
2020/02/20 08:43:11;;;;;;;3.3;1.4;;;;;;;5.81;67.05469;964.7855;;;;
2020/02/20 08:45:36;;;;;;;4.2;1.6;;;;;;;5.77;67.17383;964.7636;;;;
2020/02/20 08:48:01;;;;;;;4.6;1.6;;;;;;;5.79;67.01563;964.7827;;;;
2020/02/20 08:50:26;;;;;;;5.5;1.6;;;;;;;6.23;66.4248;964.7731;;;;
2020/02/20 08:52:51;;;;;;;3.3;1.5;;;;;;;6.25;66.28125;964.8162;;;;
2020/02/20 08:55:17;;;;;;;3;1.4;;;;;;;5.97;66.46289;964.7846;;;;
2020/02/20 08:57:42;;;;;;;4.2;1.6;;;;;;;5.85;67.57227;964.699;;;;
2020/02/20 09:00:07;;;;;;;3.7;1.4;;;;;;;6.05;67.35449;964.7061;;;;
2020/02/20 09:02:32;;;;;;;4.3;1.5;;;;;;;6.13;66.36426;964.6272;;;;
2020/02/20 09:05:21;;;;;;;4.1;1.3;;;;;;;6.09;66.95996;964.6193;;;;
2020/02/20 09:07:32;;;;;;;4.1;1.6;;;;;;;6.22;67.14063;964.659;;;;
2020/02/20 09:09:47;;;;;;;3.9;1.5;;;;;;;6.13;67.25195;964.5547;;;;
2020/02/20 09:12:12;;;;;;;4.2;1.5;;;;;;;6.3;67.12012;964.5664;;;;
2020/02/20 09:14:37;;;;;;;4.2;1.3;;;;;;;6.26;67.05566;964.5526;;;;
2020/02/20 09:17:02;;;;;;;2.8;1.5;;;;;;;6.31;67.17871;964.4764;;;;
2020/02/20 09:19:28;;;;;;;4.8;1.5;;;;;;;6.35;67.52637;964.5103;;;;
2020/02/20 09:21:53;;;;;;;3.2;1.7;;;;;;;6.29;67.65332;964.5627;;;;
2020/02/20 09:24:18;;;;;;;3;1.6;;;;;;;6.45;67.14258;964.5225;;;;
2020/02/20 09:26:43;;;;;;;2.9;1.5;;;;;;;6.54;67.09961;964.5239;;;;
2020/02/20 09:29:08;;;;;;;3.4;1.4;;;;;;;6.56;67.04688;964.5914;;;;
2020/02/20 09:31:33;;;;;;;4.1;1.3;;;;;;;6.66;66.80957;964.6197;;;;
2020/02/20 09:33:58;;;;;;;3.4;1.4;;;;;;;6.77;66.87402;964.5703;;;;
2020/02/20 09:36:23;;;;;;;3.2;1.3;;;;;;;6.85;66.53223;964.5089;;;;
2020/02/20 09:38:48;;;;;;;3.5;1.5;;;;;;;6.82;66.97168;964.4781;;;;
2020/02/20 09:41:14;;;;;;;4.4;1.3;;;;;;;7.11;67.19922;964.4088;;;;
2020/02/20 09:43:39;;;;;;;4.1;1.2;;;;;;;6.88;67.16406;964.4286;;;;
2020/02/20 09:46:04;;;;;;;2.7;1;;;;;;;6.68;67.95508;964.4855;;;;
2020/02/20 09:48:29;;;;;;;2.3;1.2;;;;;;;6.76;68.18457;964.4436;;;;
2020/02/20 09:50:54;;;;;;;3.3;1.1;;;;;;;6.8;67.54004;964.5057;;;;
2020/02/20 09:53:19;;;;;;;4;1.4;;;;;;;6.77;67.99219;964.5215;;;;
2020/02/20 09:55:44;;;;;;;1.9;1;;;;;;;6.81;67.41699;964.4683;;;;
2020/02/20 09:58:09;;;;;;;4.2;1.5;;;;;;;6.71;67.93652;964.472;;;;
2020/02/20 10:00:34;;;;;;;2.6;1.1;;;;;;;6.93;67.59473;964.4835;;;;
2020/02/20 10:03:00;;;;;;;4.5;1.1;;;;;;;6.94;67.57324;964.438;;;;
2020/02/20 10:05:25;;;;;;;4.2;1.4;;;;;;;7.05;67.6123;964.5078;;;;
2020/02/20 10:07:50;;;;;;;3.4;1.2;;;;;;;7.08;68.02832;964.4313;;;;
2020/02/20 10:10:15;;;;;;;3.7;1;;;;;;;7.11;67.26953;964.465;;;;
2020/02/20 10:12:40;;;;;;;2.2;1;;;;;;;7.29;66.9209;964.3772;;;;
2020/02/20 10:15:05;;;;;;;3.6;1.2;;;;;;;7.18;67.29102;964.3986;;;;
2020/02/20 10:17:30;;;;;;;2;1.1;;;;;;;7.15;67.56152;964.3469;;;;
2020/02/20 10:19:55;;;;;;;3.4;1.3;;;;;;;6.91;68.2998;964.351;;;;
2020/02/20 10:22:20;;;;;;;3.1;1.5;;;;;;;7.05;68.4707;964.4116;;;;
2020/02/20 10:24:45;;;;;;;4.4;2.3;;;;;;;7.22;67.94824;964.3137;;;;
2020/02/20 10:27:10;;;;;;;3.7;1.9;;;;;;;7.2;67.92285;964.3162;;;;
2020/02/20 10:29:36;;;;;;;5.2;2.3;;;;;;;7.46;67.43848;964.3638;;;;
2020/02/20 10:32:01;;;;;;;6;3.6;;;;;;;7.39;67.50879;964.3369;;;;
2020/02/20 10:34:26;;;;;;;3.6;1.6;;;;;;;7.41;68.00098;964.2489;;;;
2020/02/20 10:36:51;;;;;;;2.4;1.3;;;;;;;7.25;68.47949;964.2704;;;;
2020/02/20 10:39:16;;;;;;;3.1;1.2;;;;;;;7.3;69.31055;964.2612;;;;
2020/02/20 10:41:41;;;;;;;4.5;1.3;;;;;;;7.45;68.20215;964.22;;;;
2020/02/20 10:44:06;;;;;;;3.4;1.3;;;;;;;7.39;67.99805;964.2475;;;;
2020/02/20 10:46:31;;;;;;;4.1;1.5;;;;;;;7.43;68.40527;964.1703;;;;
2020/02/20 10:48:57;;;;;;;4.2;1.6;;;;;;;7.49;68.10547;964.171;;;;
2020/02/20 10:51:22;;;;;;;3.1;1.2;;;;;;;7.43;68.40527;964.1339;;;;
2020/02/20 10:53:47;;;;;;;3.9;1.5;;;;;;;7.4;68.61816;964.2156;;;;
2020/02/20 10:56:12;;;;;;;4;1.4;;;;;;;7.48;68.2998;964.1245;;;;
2020/02/20 10:58:37;;;;;;;3;1.3;;;;;;;7.5;68.65527;964.1534;;;;
2020/02/20 11:01:02;;;;;;;2.6;1.2;;;;;;;7.47;69.1748;964.1644;;;;
2020/02/20 11:03:27;;;;;;;2.9;1.2;;;;;;;7.69;68.80078;964.2087;;;;
2020/02/20 11:08:25;;;;;;;3.8;1.4;;;;;;;7.66;69.08301;964.1484;;;;
2020/02/20 11:13:07;;;;;;;2.9;1.2;;;;;;;7.94;67.44531;964.0938;;;;
2020/02/20 11:15:33;;;;;;;4.5;1.4;;;;;;;7.7;68.48242;964.0964;;;;
2020/02/20 11:17:58;;;;;;;2.7;1.5;;;;;;;7.82;68.3877;964.0293;;;;
2020/02/20 11:20:23;;;;;;;4.6;1.6;;;;;;;8.09;68.08594;964.0115;;;;
2020/02/20 11:22:48;;;;;;;5;1.9;;;;;;;7.98;68.03516;963.9384;;;;
2020/02/20 11:25:13;;;;;;;3.6;1.4;;;;;;;8.22;67.22461;963.9177;;;;
2020/02/20 11:27:38;;;;;;;4.1;1.8;;;;;;;8.11;67.2666;963.8524;;;;
2020/02/20 11:30:03;;;;;;;3;1.7;;;;;;;8.08;67.71973;963.8141;;;;
2020/02/20 11:32:28;;;;;;;3.1;1.7;;;;;;;8.21;66.83594;963.7804;;;;
2020/02/20 11:34:53;;;;;;;2.8;1.4;;;;;;;8.37;67.10059;963.6819;;;;
2020/02/20 11:37:18;;;;;;;4.4;2.4;;;;;;;8.09;67.30762;963.5942;;;;
2020/02/20 11:39:44;;;;;;;4.4;2.1;;;;;;;8.46;67.44531;963.53;;;;
2020/02/20 11:42:09;;;;;;;3.7;1.7;;;;;;;8.86;65.96289;963.4995;;;;
2020/02/20 11:44:34;;;;;;;3.8;1.6;;;;;;;8.59;66.51563;963.4386;;;;
2020/02/20 11:46:59;;;;;;;2.5;1.5;;;;;;;8.63;66.22461;963.3214;;;;
2020/02/20 11:49:24;;;;;;;2.8;1.3;;;;;;;8.63;65.125;963.3376;;;;
2020/02/20 11:51:49;;;;;;;3.2;1.5;;;;;;;8.79;65.82422;963.293;;;;
2020/02/20 11:54:14;;;;;;;3.6;1.5;;;;;;;8.57;65.99902;963.2772;;;;
2020/02/20 11:56:39;;;;;;;3.2;1.4;;;;;;;8.76;65.17871;963.2481;;;;
2020/02/20 11:59:04;;;;;;;2.8;1.8;;;;;;;8.96;64.95703;963.2578;;;;
2020/02/20 12:01:30;;;;;;;2.6;1.3;;;;;;;9.12;64.86719;963.1997;;;;
2020/02/20 12:04:02;;;;;;;4.3;2.2;;;;;;;9.11;64.4873;963.1097;;;;
2020/02/20 12:07:59;;;;;;;3.3;1.9;;;;;;;9.28;65.56641;963.1058;;;;
2020/02/20 12:08:51;;;;;;;1.7;1.2;;;;;;;9.09;64.22949;963.0641;;;;
2020/02/20 12:11:10;;;;;;;2.6;1.3;;;;;;;9.18;63.79688;962.9969;;;;
2020/02/20 12:13:35;;;;;;;2.9;1.4;;;;;;;9.21;63.51367;962.976;;;;
2020/02/20 12:16:00;;;;;;;3.1;1.3;;;;;;;9.25;64.13965;962.9301;;;;
2020/02/20 12:18:25;;;;;;;4.1;1.5;;;;;;;9;63.82715;962.9386;;;;
2020/02/20 12:20:50;;;;;;;2.4;1.2;;;;;;;9.11;63.78711;962.9032;;;;
2020/02/20 12:23:15;;;;;;;3.5;1.4;;;;;;;9.17;64.54102;962.8812;;;;
2020/02/20 12:25:40;;;;;;;2.1;1.1;;;;;;;9.41;63.21094;962.8616;;;;
2020/02/20 12:28:05;;;;;;;2.7;1.1;;;;;;;9.22;62.59766;962.8292;;;;
2020/02/20 12:30:31;;;;;;;2.6;1.2;;;;;;;9.23;63.17383;962.7921;;;;
2020/02/20 12:32:56;;;;;;;2.6;1;;;;;;;9.37;62.91797;962.7473;;;;
2020/02/20 12:35:21;;;;;;;3.9;1.2;;;;;;;9.21;62.24023;962.745;;;;
2020/02/20 12:37:46;;;;;;;2.3;1.2;;;;;;;9.26;63.13184;962.6962;;;;
2020/02/20 12:40:11;;;;;;;2.6;0.9;;;;;;;9.42;62.14355;962.6697;;;;
2020/02/20 12:42:36;;;;;;;2.1;1.1;;;;;;;9.5;61.66309;962.7047;;;;
2020/02/20 12:45:01;;;;;;;2.5;1.1;;;;;;;9.32;62.26758;962.623;;;;
2020/02/20 12:47:26;;;;;;;1.6;0.9;;;;;;;9.43;61.77734;962.5433;;;;
2020/02/20 12:49:51;;;;;;;2.5;1;;;;;;;9.63;61.6582;962.4599;;;;
2020/02/20 12:52:16;;;;;;;4.2;2.5;;;;;;;9.98;60.75391;962.396;;;;
2020/02/20 12:54:42;;;;;;;2.7;1.5;;;;;;;9.98;60.11035;962.3716;;;;
2020/02/20 12:57:07;;;;;;;2.3;1.1;;;;;;;9.91;60.8584;962.343;;;;
2020/02/20 12:59:32;;;;;;;2.8;1;;;;;;;9.44;61.29785;962.3744;;;;
2020/02/20 13:01:57;;;;;;;3.4;1.3;;;;;;;9.66;61.35254;962.3749;;;;
2020/02/20 13:04:22;;;;;;;2.1;1.1;;;;;;;9.91;61.05566;962.3864;;;;
2020/02/20 13:06:47;;;;;;;2.3;1.1;;;;;;;9.98;60.9043;962.3481;;;;
2020/02/20 13:09:12;;;;;;;3.5;1;;;;;;;9.75;61.46875;962.3655;;;;
2020/02/20 13:11:37;;;;;;;1.9;1;;;;;;;9.61;61.3916;962.3962;;;;
2020/02/20 13:14:02;;;;;;;2.3;1.1;;;;;;;9.91;60.88184;962.3008;;;;
2020/02/20 13:16:27;;;;;;;2.5;1.1;;;;;;;10.11;60.2334;962.2955;;;;
2020/02/20 13:18:53;;;;;;;2;0.9;;;;;;;9.8;60.31641;962.2491;;;;
2020/02/20 13:21:18;;;;;;;3;1.2;;;;;;;9.44;61.38965;962.1881;;;;
2020/02/20 13:23:43;;;;;;;2.9;0.9;;;;;;;9.68;61.25098;962.1237;;;;
2020/02/20 13:26:08;;;;;;;2.5;0.9;;;;;;;9.59;61.29688;962.1042;;;;
2020/02/20 13:28:33;;;;;;;2.7;0.9;;;;;;;9.71;61.46289;962.0659;;;;
2020/02/20 13:30:58;;;;;;;2;0.9;;;;;;;9.81;60.77539;962.0302;;;;
2020/02/20 13:33:23;;;;;;;3.2;1.1;;;;;;;10.13;60.12109;961.97;;;;
2020/02/20 13:35:48;;;;;;;3.8;1.3;;;;;;;10.03;60.69238;961.9106;;;;
2020/02/20 13:38:13;;;;;;;3.9;1.2;;;;;;;9.88;59.75293;961.933;;;;
2020/02/20 13:40:38;;;;;;;1.5;0.8;;;;;;;10.06;60.55957;961.878;;;;
2020/02/20 13:43:04;;;;;;;2.6;1.1;;;;;;;10.14;59.75488;961.8621;;;;
2020/02/20 13:45:29;;;;;;;1.8;0.8;;;;;;;10.09;59.68945;961.829;;;;
2020/02/20 13:47:54;;;;;;;2;1.1;;;;;;;10;60.63086;961.7877;;;;
2020/02/20 13:50:20;;;;;;;2.4;1.1;;;;;;;9.91;60.65137;961.8116;;;;
2020/02/20 13:52:45;;;;;;;2.7;1;;;;;;;10.14;59.73047;961.7958;;;;
2020/02/20 13:55:10;;;;;;;1.8;0.8;;;;;;;10.02;59.55176;961.7489;;;;
2020/02/20 13:57:35;;;;;;;2;0.9;;;;;;;10.01;59.41309;961.783;;;;
2020/02/20 14:00:00;;;;;;;2.1;1;;;;;;;10.01;59.67871;961.6797;;;;
2020/02/20 14:02:26;;;;;;;3.7;1.4;;;;;;;10.13;59.53516;961.6752;;;;
2020/02/20 14:04:54;;;;;;;4.1;1.4;;;;;;;10.06;59.8457;961.6467;;;;
2020/02/20 14:07:25;;;;;;;2.8;1.2;;;;;;;10.04;60.06152;961.6088;;;;
2020/02/20 14:09:41;;;;;;;2;1;;;;;;;10;60.27344;961.5792;;;;
2020/02/20 14:12:06;;;;;;;2.2;1.1;;;;;;;9.9;60.59473;961.5535;;;;
2020/02/20 14:14:32;;;;;;;3.6;1.3;;;;;;;10.07;59.9043;961.5744;;;;
2020/02/20 14:16:57;;;;;;;2;1;;;;;;;9.97;59.98242;961.551;;;;
2020/02/20 14:19:23;;;;;;;3.2;0.9;;;;;;;10.09;59.63184;961.5098;;;;
2020/02/20 14:21:48;;;;;;;2.7;1;;;;;;;9.92;60.53809;961.4812;;;;
2020/02/20 14:24:13;;;;;;;2.1;1;;;;;;;10.04;60.23438;961.4158;;;;
2020/02/20 14:26:38;;;;;;;2.9;1.1;;;;;;;10.02;59.89844;961.4302;;;;
2020/02/20 14:29:03;;;;;;;2.7;1.2;;;;;;;10.01;60.11523;961.4444;;;;
2020/02/20 14:31:29;;;;;;;2.1;0.8;;;;;;;9.95;60.29004;961.3541;;;;
2020/02/20 14:33:54;;;;;;;2.1;0.9;;;;;;;9.94;59.9082;961.2994;;;;
2020/02/20 14:36:19;;;;;;;3.6;1.9;;;;;;;9.97;60.14258;961.3229;;;;
2020/02/20 14:38:44;;;;;;;6.1;3.4;;;;;;;10.06;60.25977;961.282;;;;
2020/02/20 14:41:09;;;;;;;4.9;1.5;;;;;;;9.95;60.07227;961.2662;;;;
2020/02/20 14:43:35;;;;;;;3.5;1.1;;;;;;;9.96;59.82031;961.2548;;;;
2020/02/20 14:46:00;;;;;;;2.2;1;;;;;;;10;59.30957;961.3416;;;;